sensor_id;sensor_type;location;lat;lon;timestamp;temperature;humidity
63875;DHT22;51595;24.180;-110.296;2022-11-15T00:01:16;24.70;99.90
63875;DHT22;51595;24.180;-110.296;2022-11-15T00:03:44;24.70;99.90
63875;DHT22;51595;24.180;-110.296;2022-11-15T00:06:13;24.80;99.90
63875;DHT22;51595;24.180;-110.296;2022-11-15T00:08:40;24.80;99.90
63875;DHT22;51595;24.180;-110.296;2022-11-15T00:11:08;24.90;99.90
63875;DHT22;51595;24.180;-110.296;2022-11-15T00:13:39;24.90;99.90
63875;DHT22;51595;24.180;-110.296;2022-11-15T00:16:05;24.70;99.90
63875;DHT22;51595;24.180;-110.296;2022-11-15T00:18:32;24.70;99.90
63875;DHT22;51595;24.180;-110.296;2022-11-15T00:21:11;24.50;99.90
63875;DHT22;51595;24.180;-110.296;2022-11-15T00:23:40;24.30;99.90
63875;DHT22;51595;24.180;-110.296;2022-11-15T00:26:10;24.30;99.90
63875;DHT22;51595;24.180;-110.296;2022-11-15T00:28:40;24.30;99.90
63875;DHT22;51595;24.180;-110.296;2022-11-15T00:31:14;24.30;99.90
63875;DHT22;51595;24.180;-110.296;2022-11-15T00:33:43;24.30;99.90
63875;DHT22;51595;24.180;-110.296;2022-11-15T00:36:10;24.30;99.90
63875;DHT22;51595;24.180;-110.296;2022-11-15T00:38:39;24.20;99.90
63875;DHT22;51595;24.180;-110.296;2022-11-15T00:41:07;24.10;99.90
63875;DHT22;51595;24.180;-110.296;2022-11-15T00:43:33;24.20;99.90
63875;DHT22;51595;24.180;-110.296;2022-11-15T00:46:01;24.10;99.90
63875;DHT22;51595;24.180;-110.296;2022-11-15T00:48:28;24.00;99.90
63875;DHT22;51595;24.180;-110.296;2022-11-15T00:50:55;24.20;99.90
63875;DHT22;51595;24.180;-110.296;2022-11-15T00:53:21;24.00;99.90
63875;DHT22;51595;24.180;-110.296;2022-11-15T00:55:47;24.00;99.90
63875;DHT22;51595;24.180;-110.296;2022-11-15T00:58:14;23.90;99.90
63875;DHT22;51595;24.180;-110.296;2022-11-15T01:00:40;23.90;99.90
63875;DHT22;51595;24.180;-110.296;2022-11-15T01:03:07;24.00;99.90
63875;DHT22;51595;24.180;-110.296;2022-11-15T01:05:33;24.00;99.90
63875;DHT22;51595;24.180;-110.296;2022-11-15T01:07:59;23.90;99.90
63875;DHT22;51595;24.180;-110.296;2022-11-15T01:10:26;24.00;99.90
63875;DHT22;51595;24.180;-110.296;2022-11-15T01:12:52;23.90;99.90
63875;DHT22;51595;24.180;-110.296;2022-11-15T01:15:19;23.90;99.90
63875;DHT22;51595;24.180;-110.296;2022-11-15T01:17:45;23.90;99.90
63875;DHT22;51595;24.180;-110.296;2022-11-15T01:20:12;24.00;99.90
63875;DHT22;51595;24.180;-110.296;2022-11-15T01:22:38;23.90;99.90
63875;DHT22;51595;24.180;-110.296;2022-11-15T01:25:05;23.90;99.90
63875;DHT22;51595;24.180;-110.296;2022-11-15T01:27:31;23.80;99.90
63875;DHT22;51595;24.180;-110.296;2022-11-15T01:29:58;23.90;99.90
63875;DHT22;51595;24.180;-110.296;2022-11-15T01:32:27;23.90;99.90
63875;DHT22;51595;24.180;-110.296;2022-11-15T01:34:53;23.90;99.90
63875;DHT22;51595;24.180;-110.296;2022-11-15T01:37:20;24.00;99.90
63875;DHT22;51595;24.180;-110.296;2022-11-15T01:39:46;24.00;99.90
63875;DHT22;51595;24.180;-110.296;2022-11-15T01:42:13;23.80;99.90
63875;DHT22;51595;24.180;-110.296;2022-11-15T01:44:42;23.80;99.90
63875;DHT22;51595;24.180;-110.296;2022-11-15T01:47:24;23.80;99.90
63875;DHT22;51595;24.180;-110.296;2022-11-15T01:52:26;23.80;99.90
63875;DHT22;51595;24.180;-110.296;2022-11-15T01:54:58;23.70;99.90
63875;DHT22;51595;24.180;-110.296;2022-11-15T01:57:27;23.60;99.90
63875;DHT22;51595;24.180;-110.296;2022-11-15T01:59:55;23.60;99.90
63875;DHT22;51595;24.180;-110.296;2022-11-15T02:02:22;23.60;99.90
63875;DHT22;51595;24.180;-110.296;2022-11-15T02:04:48;23.50;99.90
63875;DHT22;51595;24.180;-110.296;2022-11-15T02:07:17;23.50;99.90
63875;DHT22;51595;24.180;-110.296;2022-11-15T02:09:45;24.40;99.90
63875;DHT22;51595;24.180;-110.296;2022-11-15T02:12:15;23.50;99.90
63875;DHT22;51595;24.180;-110.296;2022-11-15T02:14:46;23.60;99.90
63875;DHT22;51595;24.180;-110.296;2022-11-15T02:17:36;23.50;99.90
63875;DHT22;51595;24.180;-110.296;2022-11-15T02:27:53;23.50;99.90
63875;DHT22;51595;24.180;-110.296;2022-11-15T02:30:40;23.50;99.90
63875;DHT22;51595;24.180;-110.296;2022-11-15T02:41:10;23.40;99.90
63875;DHT22;51595;24.180;-110.296;2022-11-15T02:43:46;23.40;99.90
63875;DHT22;51595;24.180;-110.296;2022-11-15T02:46:24;23.50;99.90
63875;DHT22;51595;24.180;-110.296;2022-11-15T02:49:13;23.40;99.90
63875;DHT22;51595;24.180;-110.296;2022-11-15T02:51:42;23.50;99.90
63875;DHT22;51595;24.180;-110.296;2022-11-15T02:54:20;23.50;99.90
63875;DHT22;51595;24.180;-110.296;2022-11-15T02:56:48;23.40;99.90
63875;DHT22;51595;24.180;-110.296;2022-11-15T03:01:50;23.40;99.90
63875;DHT22;51595;24.180;-110.296;2022-11-15T03:04:43;23.40;99.90
63875;DHT22;51595;24.180;-110.296;2022-11-15T03:07:35;23.40;99.90
63875;DHT22;51595;24.180;-110.296;2022-11-15T03:13:07;23.50;99.90
63875;DHT22;51595;24.180;-110.296;2022-11-15T03:15:57;23.50;99.90
63875;DHT22;51595;24.180;-110.296;2022-11-15T03:18:32;23.50;99.90
63875;DHT22;51595;24.180;-110.296;2022-11-15T03:21:01;23.60;99.90
63875;DHT22;51595;24.180;-110.296;2022-11-15T03:23:30;23.50;99.90
63875;DHT22;51595;24.180;-110.296;2022-11-15T03:25:58;23.50;99.90
63875;DHT22;51595;24.180;-110.296;2022-11-15T03:29:17;23.40;99.90
63875;DHT22;51595;24.180;-110.296;2022-11-15T03:31:19;23.40;99.90
63875;DHT22;51595;24.180;-110.296;2022-11-15T03:34:06;23.40;99.90
63875;DHT22;51595;24.180;-110.296;2022-11-15T03:36:34;23.40;99.90
63875;DHT22;51595;24.180;-110.296;2022-11-15T03:39:06;23.40;99.90
63875;DHT22;51595;24.180;-110.296;2022-11-15T03:42:13;23.40;99.90
63875;DHT22;51595;24.180;-110.296;2022-11-15T03:50:07;23.60;99.90
63875;DHT22;51595;24.180;-110.296;2022-11-15T03:52:34;23.70;99.90
63875;DHT22;51595;24.180;-110.296;2022-11-15T03:55:03;23.60;99.90
63875;DHT22;51595;24.180;-110.296;2022-11-15T03:57:31;23.50;99.90
63875;DHT22;51595;24.180;-110.296;2022-11-15T03:59:57;23.40;99.90
63875;DHT22;51595;24.180;-110.296;2022-11-15T04:02:24;23.50;99.90
63875;DHT22;51595;24.180;-110.296;2022-11-15T04:04:51;23.50;99.90
63875;DHT22;51595;24.180;-110.296;2022-11-15T04:07:17;23.60;99.90
63875;DHT22;51595;24.180;-110.296;2022-11-15T04:09:44;23.50;99.90
63875;DHT22;51595;24.180;-110.296;2022-11-15T04:12:40;23.40;99.90
63875;DHT22;51595;24.180;-110.296;2022-11-15T04:15:18;23.20;99.90
63875;DHT22;51595;24.180;-110.296;2022-11-15T04:17:47;23.20;99.90
63875;DHT22;51595;24.180;-110.296;2022-11-15T04:20:22;23.10;99.90
63875;DHT22;51595;24.180;-110.296;2022-11-15T04:23:11;23.10;99.90
63875;DHT22;51595;24.180;-110.296;2022-11-15T04:25:57;23.00;99.90
63875;DHT22;51595;24.180;-110.296;2022-11-15T04:28:24;23.00;99.90
63875;DHT22;51595;24.180;-110.296;2022-11-15T04:30:51;23.00;99.90
63875;DHT22;51595;24.180;-110.296;2022-11-15T04:33:17;23.00;99.90
63875;DHT22;51595;24.180;-110.296;2022-11-15T04:35:44;22.90;99.90
63875;DHT22;51595;24.180;-110.296;2022-11-15T04:38:30;22.90;99.90
63875;DHT22;51595;24.180;-110.296;2022-11-15T04:40:57;22.90;99.90
63875;DHT22;51595;24.180;-110.296;2022-11-15T04:43:23;22.80;99.90
63875;DHT22;51595;24.180;-110.296;2022-11-15T04:45:49;22.70;99.90
63875;DHT22;51595;24.180;-110.296;2022-11-15T04:48:16;22.70;99.90
63875;DHT22;51595;24.180;-110.296;2022-11-15T04:50:42;22.80;99.90
63875;DHT22;51595;24.180;-110.296;2022-11-15T04:53:09;22.70;99.90
63875;DHT22;51595;24.180;-110.296;2022-11-15T04:55:35;22.70;99.90
63875;DHT22;51595;24.180;-110.296;2022-11-15T04:58:02;22.80;99.90
63875;DHT22;51595;24.180;-110.296;2022-11-15T05:00:29;22.80;99.90
63875;DHT22;51595;24.180;-110.296;2022-11-15T05:02:56;22.90;99.90
63875;DHT22;51595;24.180;-110.296;2022-11-15T05:05:41;23.10;99.90
63875;DHT22;51595;24.180;-110.296;2022-11-15T05:08:08;23.10;99.90
63875;DHT22;51595;24.180;-110.296;2022-11-15T05:10:34;23.10;99.90
63875;DHT22;51595;24.180;-110.296;2022-11-15T05:13:01;23.20;99.90
63875;DHT22;51595;24.180;-110.296;2022-11-15T05:15:27;23.10;99.90
63875;DHT22;51595;24.180;-110.296;2022-11-15T05:17:58;23.00;99.90
63875;DHT22;51595;24.180;-110.296;2022-11-15T05:20:25;23.00;99.90
63875;DHT22;51595;24.180;-110.296;2022-11-15T05:22:53;22.90;99.90
63875;DHT22;51595;24.180;-110.296;2022-11-15T05:25:22;22.80;99.90
63875;DHT22;51595;24.180;-110.296;2022-11-15T05:27:48;22.70;99.90
63875;DHT22;51595;24.180;-110.296;2022-11-15T05:30:15;22.70;99.90
63875;DHT22;51595;24.180;-110.296;2022-11-15T05:32:43;22.70;99.90
63875;DHT22;51595;24.180;-110.296;2022-11-15T05:35:30;22.70;99.90
63875;DHT22;51595;24.180;-110.296;2022-11-15T05:37:57;22.70;99.90
63875;DHT22;51595;24.180;-110.296;2022-11-15T05:40:24;22.70;99.90
63875;DHT22;51595;24.180;-110.296;2022-11-15T05:42:51;22.70;99.90
63875;DHT22;51595;24.180;-110.296;2022-11-15T05:45:18;22.70;99.90
63875;DHT22;51595;24.180;-110.296;2022-11-15T05:47:45;22.70;99.90
63875;DHT22;51595;24.180;-110.296;2022-11-15T05:50:14;22.70;99.90
63875;DHT22;51595;24.180;-110.296;2022-11-15T05:52:43;22.70;99.90
63875;DHT22;51595;24.180;-110.296;2022-11-15T05:55:10;22.70;99.90
63875;DHT22;51595;24.180;-110.296;2022-11-15T05:57:37;22.60;99.90
63875;DHT22;51595;24.180;-110.296;2022-11-15T06:00:04;22.70;99.90
63875;DHT22;51595;24.180;-110.296;2022-11-15T06:02:31;22.60;99.90
63875;DHT22;51595;24.180;-110.296;2022-11-15T06:04:57;22.60;99.90
63875;DHT22;51595;24.180;-110.296;2022-11-15T06:07:24;22.60;99.90
63875;DHT22;51595;24.180;-110.296;2022-11-15T06:09:50;22.70;99.90
63875;DHT22;51595;24.180;-110.296;2022-11-15T06:12:17;22.70;99.90
63875;DHT22;51595;24.180;-110.296;2022-11-15T06:14:43;22.70;99.90
63875;DHT22;51595;24.180;-110.296;2022-11-15T06:17:10;22.60;99.90
63875;DHT22;51595;24.180;-110.296;2022-11-15T06:19:36;22.60;99.90
63875;DHT22;51595;24.180;-110.296;2022-11-15T06:22:05;22.60;99.90
63875;DHT22;51595;24.180;-110.296;2022-11-15T06:24:38;22.60;99.90
63875;DHT22;51595;24.180;-110.296;2022-11-15T06:27:08;22.60;99.90
63875;DHT22;51595;24.180;-110.296;2022-11-15T06:32:31;22.60;99.90
63875;DHT22;51595;24.180;-110.296;2022-11-15T06:35:03;22.60;99.90
63875;DHT22;51595;24.180;-110.296;2022-11-15T06:37:33;22.60;99.90
63875;DHT22;51595;24.180;-110.296;2022-11-15T06:40:00;22.60;99.90
63875;DHT22;51595;24.180;-110.296;2022-11-15T06:42:27;22.60;99.90
63875;DHT22;51595;24.180;-110.296;2022-11-15T06:45:04;22.60;99.90
63875;DHT22;51595;24.180;-110.296;2022-11-15T06:47:45;22.60;99.90
63875;DHT22;51595;24.180;-110.296;2022-11-15T06:50:25;22.60;99.90
63875;DHT22;51595;24.180;-110.296;2022-11-15T06:52:55;22.60;99.90
63875;DHT22;51595;24.180;-110.296;2022-11-15T06:55:21;22.80;99.90
63875;DHT22;51595;24.180;-110.296;2022-11-15T06:57:51;22.90;99.90
63875;DHT22;51595;24.180;-110.296;2022-11-15T07:00:28;22.80;99.90
63875;DHT22;51595;24.180;-110.296;2022-11-15T07:03:00;22.60;99.90
63875;DHT22;51595;24.180;-110.296;2022-11-15T07:05:27;22.50;99.90
63875;DHT22;51595;24.180;-110.296;2022-11-15T07:07:55;22.40;99.90
63875;DHT22;51595;24.180;-110.296;2022-11-15T07:10:26;22.30;99.90
63875;DHT22;51595;24.180;-110.296;2022-11-15T07:12:57;22.30;99.90
63875;DHT22;51595;24.180;-110.296;2022-11-15T07:15:25;22.20;99.90
63875;DHT22;51595;24.180;-110.296;2022-11-15T07:17:52;22.20;99.90
63875;DHT22;51595;24.180;-110.296;2022-11-15T07:20:18;22.20;99.90
63875;DHT22;51595;24.180;-110.296;2022-11-15T07:22:45;22.20;99.90
63875;DHT22;51595;24.180;-110.296;2022-11-15T07:25:11;22.20;99.90
63875;DHT22;51595;24.180;-110.296;2022-11-15T07:27:38;22.20;99.90
63875;DHT22;51595;24.180;-110.296;2022-11-15T07:30:05;22.20;99.90
63875;DHT22;51595;24.180;-110.296;2022-11-15T07:32:31;22.20;99.90
63875;DHT22;51595;24.180;-110.296;2022-11-15T07:34:58;22.20;99.90
63875;DHT22;51595;24.180;-110.296;2022-11-15T07:37:24;22.30;99.90
63875;DHT22;51595;24.180;-110.296;2022-11-15T07:39:50;22.20;99.90
63875;DHT22;51595;24.180;-110.296;2022-11-15T07:42:17;22.20;99.90
63875;DHT22;51595;24.180;-110.296;2022-11-15T07:45:01;22.00;99.90
63875;DHT22;51595;24.180;-110.296;2022-11-15T07:47:28;22.00;99.90
63875;DHT22;51595;24.180;-110.296;2022-11-15T07:49:55;21.90;99.90
63875;DHT22;51595;24.180;-110.296;2022-11-15T07:52:21;21.90;99.90
63875;DHT22;51595;24.180;-110.296;2022-11-15T07:54:48;22.00;99.90
63875;DHT22;51595;24.180;-110.296;2022-11-15T07:57:14;22.10;99.90
63875;DHT22;51595;24.180;-110.296;2022-11-15T07:59:41;22.10;99.90
63875;DHT22;51595;24.180;-110.296;2022-11-15T08:02:09;22.10;99.90
63875;DHT22;51595;24.180;-110.296;2022-11-15T08:04:35;22.10;99.90
63875;DHT22;51595;24.180;-110.296;2022-11-15T08:07:02;22.20;99.90
63875;DHT22;51595;24.180;-110.296;2022-11-15T08:09:28;22.20;99.90
63875;DHT22;51595;24.180;-110.296;2022-11-15T08:11:55;22.20;99.90
63875;DHT22;51595;24.180;-110.296;2022-11-15T08:14:21;22.20;99.90
63875;DHT22;51595;24.180;-110.296;2022-11-15T08:16:48;22.20;99.90
63875;DHT22;51595;24.180;-110.296;2022-11-15T08:19:14;22.20;99.90
63875;DHT22;51595;24.180;-110.296;2022-11-15T08:21:40;22.00;99.90
63875;DHT22;51595;24.180;-110.296;2022-11-15T08:24:09;21.80;99.90
63875;DHT22;51595;24.180;-110.296;2022-11-15T08:26:35;22.10;99.90
63875;DHT22;51595;24.180;-110.296;2022-11-15T08:29:02;22.10;99.90
63875;DHT22;51595;24.180;-110.296;2022-11-15T08:31:28;22.10;99.90
63875;DHT22;51595;24.180;-110.296;2022-11-15T08:33:57;22.10;99.90
63875;DHT22;51595;24.180;-110.296;2022-11-15T08:36:23;21.90;99.90
63875;DHT22;51595;24.180;-110.296;2022-11-15T08:38:51;21.80;99.90
63875;DHT22;51595;24.180;-110.296;2022-11-15T08:41:33;21.70;99.90
63875;DHT22;51595;24.180;-110.296;2022-11-15T08:44:01;21.60;99.90
63875;DHT22;51595;24.180;-110.296;2022-11-15T08:46:28;21.60;99.90
63875;DHT22;51595;24.180;-110.296;2022-11-15T08:48:54;21.50;99.90
63875;DHT22;51595;24.180;-110.296;2022-11-15T08:51:21;21.50;99.90
63875;DHT22;51595;24.180;-110.296;2022-11-15T08:53:47;21.50;99.90
63875;DHT22;51595;24.180;-110.296;2022-11-15T08:56:14;21.60;99.90
63875;DHT22;51595;24.180;-110.296;2022-11-15T08:58:41;21.70;99.90
63875;DHT22;51595;24.180;-110.296;2022-11-15T09:01:16;21.60;99.90
63875;DHT22;51595;24.180;-110.296;2022-11-15T09:03:45;21.70;99.90
63875;DHT22;51595;24.180;-110.296;2022-11-15T09:06:11;21.70;99.90
63875;DHT22;51595;24.180;-110.296;2022-11-15T09:08:38;21.80;99.90
63875;DHT22;51595;24.180;-110.296;2022-11-15T09:11:09;21.90;99.90
63875;DHT22;51595;24.180;-110.296;2022-11-15T09:13:36;22.00;99.90
63875;DHT22;51595;24.180;-110.296;2022-11-15T09:16:05;22.00;99.90
63875;DHT22;51595;24.180;-110.296;2022-11-15T09:18:32;22.20;99.90
63875;DHT22;51595;24.180;-110.296;2022-11-15T09:20:59;22.20;99.90
63875;DHT22;51595;24.180;-110.296;2022-11-15T09:23:28;22.40;99.90
63875;DHT22;51595;24.180;-110.296;2022-11-15T09:25:59;22.30;99.90
63875;DHT22;51595;24.180;-110.296;2022-11-15T09:28:27;22.40;99.90
63875;DHT22;51595;24.180;-110.296;2022-11-15T09:30:58;22.50;99.90
63875;DHT22;51595;24.180;-110.296;2022-11-15T09:33:25;22.60;99.90
63875;DHT22;51595;24.180;-110.296;2022-11-15T09:35:51;22.70;99.90
63875;DHT22;51595;24.180;-110.296;2022-11-15T09:38:18;22.70;99.90
63875;DHT22;51595;24.180;-110.296;2022-11-15T09:40:48;22.70;99.90
63875;DHT22;51595;24.180;-110.296;2022-11-15T09:43:29;22.70;99.90
63875;DHT22;51595;24.180;-110.296;2022-11-15T09:48:56;22.50;99.90
63875;DHT22;51595;24.180;-110.296;2022-11-15T09:51:41;22.20;99.90
63875;DHT22;51595;24.180;-110.296;2022-11-15T09:56:48;22.10;99.90
63875;DHT22;51595;24.180;-110.296;2022-11-15T10:04:30;22.00;99.90
63875;DHT22;51595;24.180;-110.296;2022-11-15T10:07:15;22.10;99.90
63875;DHT22;51595;24.180;-110.296;2022-11-15T10:09:56;22.10;99.90
63875;DHT22;51595;24.180;-110.296;2022-11-15T10:12:23;22.10;99.90
63875;DHT22;51595;24.180;-110.296;2022-11-15T10:15:03;22.20;99.90
63875;DHT22;51595;24.180;-110.296;2022-11-15T10:20:25;22.30;99.90
63875;DHT22;51595;24.180;-110.296;2022-11-15T10:23:05;22.30;99.90
63875;DHT22;51595;24.180;-110.296;2022-11-15T10:25:33;22.30;99.90
63875;DHT22;51595;24.180;-110.296;2022-11-15T10:30:48;22.40;99.90
63875;DHT22;51595;24.180;-110.296;2022-11-15T10:33:36;22.40;99.90
63875;DHT22;51595;24.180;-110.296;2022-11-15T10:41:17;22.40;99.90
63875;DHT22;51595;24.180;-110.296;2022-11-15T10:43:45;22.40;99.90
63875;DHT22;51595;24.180;-110.296;2022-11-15T10:46:22;22.50;99.90
63875;DHT22;51595;24.180;-110.296;2022-11-15T10:48:50;22.40;99.90
63875;DHT22;51595;24.180;-110.296;2022-11-15T10:51:26;22.40;99.90
63875;DHT22;51595;24.180;-110.296;2022-11-15T10:53:59;22.40;99.90
63875;DHT22;51595;24.180;-110.296;2022-11-15T10:56:26;22.40;99.90
63875;DHT22;51595;24.180;-110.296;2022-11-15T10:58:57;22.50;99.90
63875;DHT22;51595;24.180;-110.296;2022-11-15T11:01:25;22.50;99.90
63875;DHT22;51595;24.180;-110.296;2022-11-15T11:04:07;22.50;99.90
63875;DHT22;51595;24.180;-110.296;2022-11-15T11:06:54;22.40;99.90
63875;DHT22;51595;24.180;-110.296;2022-11-15T11:09:31;22.40;99.90
63875;DHT22;51595;24.180;-110.296;2022-11-15T11:11:59;22.40;99.90
63875;DHT22;51595;24.180;-110.296;2022-11-15T11:14:31;22.50;99.90
63875;DHT22;51595;24.180;-110.296;2022-11-15T11:17:13;22.40;99.90
63875;DHT22;51595;24.180;-110.296;2022-11-15T11:25:20;22.50;99.90
63875;DHT22;51595;24.180;-110.296;2022-11-15T11:27:57;22.60;99.90
63875;DHT22;51595;24.180;-110.296;2022-11-15T11:33:22;22.50;99.90
63875;DHT22;51595;24.180;-110.296;2022-11-15T11:35:58;22.40;99.90
63875;DHT22;51595;24.180;-110.296;2022-11-15T11:43:59;22.30;99.90
63875;DHT22;51595;24.180;-110.296;2022-11-15T11:49:59;22.30;99.90
63875;DHT22;51595;24.180;-110.296;2022-11-15T11:52:19;22.30;99.90
63875;DHT22;51595;24.180;-110.296;2022-11-15T11:55:03;22.30;99.90
63875;DHT22;51595;24.180;-110.296;2022-11-15T11:57:40;22.30;99.90
63875;DHT22;51595;24.180;-110.296;2022-11-15T12:00:21;22.30;99.90
63875;DHT22;51595;24.180;-110.296;2022-11-15T12:03:07;22.30;99.90
63875;DHT22;51595;24.180;-110.296;2022-11-15T12:06:06;22.20;99.90
63875;DHT22;51595;24.180;-110.296;2022-11-15T12:08:52;22.20;99.90
63875;DHT22;51595;24.180;-110.296;2022-11-15T12:11:37;22.30;99.90
63875;DHT22;51595;24.180;-110.296;2022-11-15T12:16:54;22.20;99.90
63875;DHT22;51595;24.180;-110.296;2022-11-15T12:19:20;22.20;99.90
63875;DHT22;51595;24.180;-110.296;2022-11-15T12:22:12;22.20;99.90
63875;DHT22;51595;24.180;-110.296;2022-11-15T12:25:24;22.20;99.90
63875;DHT22;51595;24.180;-110.296;2022-11-15T12:28:03;22.20;99.90
63875;DHT22;51595;24.180;-110.296;2022-11-15T12:31:19;22.20;99.90
63875;DHT22;51595;24.180;-110.296;2022-11-15T12:33:41;22.20;99.90
63875;DHT22;51595;24.180;-110.296;2022-11-15T12:39:06;22.10;99.90
63875;DHT22;51595;24.180;-110.296;2022-11-15T12:41:44;22.20;99.90
63875;DHT22;51595;24.180;-110.296;2022-11-15T12:59:57;22.10;99.90
63875;DHT22;51595;24.180;-110.296;2022-11-15T13:02:43;22.10;99.90
63875;DHT22;51595;24.180;-110.296;2022-11-15T13:17:40;22.10;99.90
63875;DHT22;51595;24.180;-110.296;2022-11-15T13:22:51;22.00;99.90
63875;DHT22;51595;24.180;-110.296;2022-11-15T13:33:27;22.00;99.90
63875;DHT22;51595;24.180;-110.296;2022-11-15T13:35:59;22.10;99.90
63875;DHT22;51595;24.180;-110.296;2022-11-15T13:38:40;22.00;99.90
63875;DHT22;51595;24.180;-110.296;2022-11-15T13:41:25;22.10;99.90
63875;DHT22;51595;24.180;-110.296;2022-11-15T13:43:53;22.10;99.90
63875;DHT22;51595;24.180;-110.296;2022-11-15T13:46:23;22.10;99.90
63875;DHT22;51595;24.180;-110.296;2022-11-15T13:49:08;22.00;99.90
63875;DHT22;51595;24.180;-110.296;2022-11-15T13:54:25;22.10;99.90
63875;DHT22;51595;24.180;-110.296;2022-11-15T13:56:56;22.10;99.90
63875;DHT22;51595;24.180;-110.296;2022-11-15T13:59:25;22.10;99.90
63875;DHT22;51595;24.180;-110.296;2022-11-15T14:01:56;22.10;99.90
63875;DHT22;51595;24.180;-110.296;2022-11-15T14:04:25;22.10;99.90
63875;DHT22;51595;24.180;-110.296;2022-11-15T14:06:59;22.10;99.90
63875;DHT22;51595;24.180;-110.296;2022-11-15T14:09:38;22.10;99.90
63875;DHT22;51595;24.180;-110.296;2022-11-15T14:12:35;22.20;99.90
63875;DHT22;51595;24.180;-110.296;2022-11-15T14:15:24;22.20;99.90
63875;DHT22;51595;24.180;-110.296;2022-11-15T14:17:51;22.10;99.90
63875;DHT22;51595;24.180;-110.296;2022-11-15T14:20:29;22.20;99.90
63875;DHT22;51595;24.180;-110.296;2022-11-15T14:22:59;22.20;99.90
63875;DHT22;51595;24.180;-110.296;2022-11-15T14:25:28;22.10;99.90
63875;DHT22;51595;24.180;-110.296;2022-11-15T14:30:49;22.10;99.90
63875;DHT22;51595;24.180;-110.296;2022-11-15T14:33:38;22.30;99.90
63875;DHT22;51595;24.180;-110.296;2022-11-15T14:36:16;22.20;99.90
63875;DHT22;51595;24.180;-110.296;2022-11-15T14:38:43;22.20;99.90
63875;DHT22;51595;24.180;-110.296;2022-11-15T14:41:24;22.20;99.90
63875;DHT22;51595;24.180;-110.296;2022-11-15T14:43:52;22.30;99.90
63875;DHT22;51595;24.180;-110.296;2022-11-15T14:46:19;22.20;99.90
63875;DHT22;51595;24.180;-110.296;2022-11-15T14:48:45;22.30;99.90
63875;DHT22;51595;24.180;-110.296;2022-11-15T14:51:14;22.30;99.90
63875;DHT22;51595;24.180;-110.296;2022-11-15T14:53:41;22.30;99.90
63875;DHT22;51595;24.180;-110.296;2022-11-15T14:56:08;22.20;99.90
63875;DHT22;51595;24.180;-110.296;2022-11-15T14:58:35;22.30;99.90
63875;DHT22;51595;24.180;-110.296;2022-11-15T15:01:31;22.40;99.90
63875;DHT22;51595;24.180;-110.296;2022-11-15T15:03:57;22.50;99.90
63875;DHT22;51595;24.180;-110.296;2022-11-15T15:06:25;22.50;99.90
63875;DHT22;51595;24.180;-110.296;2022-11-15T15:08:51;22.50;99.90
63875;DHT22;51595;24.180;-110.296;2022-11-15T15:11:22;22.50;99.90
63875;DHT22;51595;24.180;-110.296;2022-11-15T15:13:50;22.60;99.90
63875;DHT22;51595;24.180;-110.296;2022-11-15T15:16:16;22.60;99.90
63875;DHT22;51595;24.180;-110.296;2022-11-15T15:18:42;22.60;99.90
63875;DHT22;51595;24.180;-110.296;2022-11-15T15:21:27;22.80;99.90
63875;DHT22;51595;24.180;-110.296;2022-11-15T15:23:54;22.70;99.90
63875;DHT22;51595;24.180;-110.296;2022-11-15T15:26:22;22.80;99.90
63875;DHT22;51595;24.180;-110.296;2022-11-15T15:28:49;22.70;99.90
63875;DHT22;51595;24.180;-110.296;2022-11-15T15:31:17;22.70;99.90
63875;DHT22;51595;24.180;-110.296;2022-11-15T15:33:47;22.70;99.90
63875;DHT22;51595;24.180;-110.296;2022-11-15T15:36:15;22.70;99.90
63875;DHT22;51595;24.180;-110.296;2022-11-15T15:38:42;22.80;99.90
63875;DHT22;51595;24.180;-110.296;2022-11-15T15:41:16;22.90;99.90
63875;DHT22;51595;24.180;-110.296;2022-11-15T15:43:42;23.20;99.90
63875;DHT22;51595;24.180;-110.296;2022-11-15T15:46:15;23.10;99.90
63875;DHT22;51595;24.180;-110.296;2022-11-15T15:48:43;23.10;99.90
63875;DHT22;51595;24.180;-110.296;2022-11-15T15:51:09;23.00;99.90
63875;DHT22;51595;24.180;-110.296;2022-11-15T15:53:36;23.00;99.90
63875;DHT22;51595;24.180;-110.296;2022-11-15T15:56:03;22.90;99.90
63875;DHT22;51595;24.180;-110.296;2022-11-15T15:58:29;23.20;99.90
63875;DHT22;51595;24.180;-110.296;2022-11-15T16:00:57;23.20;99.90
63875;DHT22;51595;24.180;-110.296;2022-11-15T16:03:24;23.00;99.90
63875;DHT22;51595;24.180;-110.296;2022-11-15T16:05:51;23.20;99.90
63875;DHT22;51595;24.180;-110.296;2022-11-15T16:08:24;23.20;99.90
63875;DHT22;51595;24.180;-110.296;2022-11-15T16:10:54;23.40;99.90
63875;DHT22;51595;24.180;-110.296;2022-11-15T16:13:24;23.50;99.90
63875;DHT22;51595;24.180;-110.296;2022-11-15T16:15:52;23.60;99.90
63875;DHT22;51595;24.180;-110.296;2022-11-15T16:18:19;23.80;99.90
63875;DHT22;51595;24.180;-110.296;2022-11-15T16:20:48;23.70;99.90
63875;DHT22;51595;24.180;-110.296;2022-11-15T16:23:22;23.70;99.90
63875;DHT22;51595;24.180;-110.296;2022-11-15T16:28:58;23.40;99.90
63875;DHT22;51595;24.180;-110.296;2022-11-15T16:31:24;23.50;99.90
63875;DHT22;51595;24.180;-110.296;2022-11-15T16:33:50;23.30;99.90
63875;DHT22;51595;24.180;-110.296;2022-11-15T16:36:26;23.40;99.90
63875;DHT22;51595;24.180;-110.296;2022-11-15T16:38:52;23.60;99.90
63875;DHT22;51595;24.180;-110.296;2022-11-15T16:41:19;24.10;99.90
63875;DHT22;51595;24.180;-110.296;2022-11-15T16:43:46;24.10;99.90
63875;DHT22;51595;24.180;-110.296;2022-11-15T16:46:21;23.90;99.90
63875;DHT22;51595;24.180;-110.296;2022-11-15T16:48:48;23.80;99.90
63875;DHT22;51595;24.180;-110.296;2022-11-15T16:51:15;23.60;99.90
63875;DHT22;51595;24.180;-110.296;2022-11-15T16:53:42;23.80;99.90
63875;DHT22;51595;24.180;-110.296;2022-11-15T16:56:29;23.80;99.90
63875;DHT22;51595;24.180;-110.296;2022-11-15T16:58:58;23.80;99.90
63875;DHT22;51595;24.180;-110.296;2022-11-15T17:01:34;23.80;99.90
63875;DHT22;51595;24.180;-110.296;2022-11-15T17:04:02;23.90;99.90
63875;DHT22;51595;24.180;-110.296;2022-11-15T17:06:41;23.70;99.90
63875;DHT22;51595;24.180;-110.296;2022-11-15T17:09:14;23.70;99.90
63875;DHT22;51595;24.180;-110.296;2022-11-15T17:11:42;24.00;99.90
63875;DHT22;51595;24.180;-110.296;2022-11-15T17:14:10;23.90;99.90
63875;DHT22;51595;24.180;-110.296;2022-11-15T17:16:37;24.00;99.90